createdAt,value
2022-11-05T00:00:32.982Z,100335.78
2022-11-05T00:03:19.043Z,100338.44
2022-11-05T00:06:07.513Z,100339.50
2022-11-05T00:08:53.388Z,100341.56
2022-11-05T00:11:40.547Z,100340.72
2022-11-05T00:14:26.222Z,100342.75
2022-11-05T00:16:53.197Z,100333.13
2022-11-05T00:19:20.154Z,100334.94
2022-11-05T00:22:05.934Z,100323.47
2022-11-05T00:24:51.533Z,100321.00
2022-11-05T00:27:18.455Z,100328.31
2022-11-05T00:29:45.500Z,100322.97
2022-11-05T00:32:13.203Z,100319.53
2022-11-05T00:34:40.092Z,100319.66
2022-11-05T00:37:07.569Z,100318.69
2022-11-05T00:39:35.225Z,100323.06
2022-11-05T00:42:20.822Z,100320.38
2022-11-05T00:45:02.910Z,100317.91
2022-11-05T00:47:51.075Z,100322.44
2022-11-05T00:50:20.501Z,100341.28
2022-11-05T00:53:00.377Z,100353.91
2022-11-05T00:55:42.445Z,100352.31
2022-11-05T00:58:12.884Z,100358.84
2022-11-05T01:00:48.878Z,100360.88
2022-11-05T01:03:19.002Z,100352.94
2022-11-05T01:05:50.832Z,100353.06
2022-11-05T01:08:21.280Z,100354.78
2022-11-05T01:10:52.287Z,100358.31
2022-11-05T01:13:29.553Z,100363.56
2022-11-05T01:15:57.595Z,100370.63
2022-11-05T01:18:24.743Z,100370.63
2022-11-05T01:20:51.758Z,100372.56
2022-11-05T01:23:19.158Z,100366.31
2022-11-05T01:25:46.459Z,100381.66
2022-11-05T01:28:13.457Z,100395.47
2022-11-05T01:30:40.457Z,100386.88
2022-11-05T01:33:07.865Z,100390.53
2022-11-05T01:35:34.962Z,100387.66
2022-11-05T01:38:02.576Z,100381.84
2022-11-05T01:40:29.834Z,100379.41
2022-11-05T01:42:56.724Z,100383.91
2022-11-05T01:45:27.160Z,100388.47
2022-11-05T01:48:18.811Z,100386.13
2022-11-05T01:51:03.277Z,100396.28
2022-11-05T01:53:36.954Z,100398.31
2022-11-05T01:56:15.241Z,100397.53
2022-11-05T01:58:57.285Z,100400.97
2022-11-05T02:01:24.951Z,100406.03
2022-11-05T02:03:56.441Z,100408.72
2022-11-05T02:06:23.441Z,100406.97
2022-11-05T02:09:07.188Z,100405.56
2022-11-05T02:11:34.763Z,100410.59
2022-11-05T02:14:01.811Z,100410.03
2022-11-05T02:16:45.001Z,100424.50
2022-11-05T02:19:30.171Z,100426.41
2022-11-05T02:22:25.671Z,100430.13
2022-11-05T02:25:02.855Z,100432.06
2022-11-05T02:27:41.561Z,100430.25
2022-11-05T02:30:51.868Z,100431.31
2022-11-05T02:33:41.477Z,100426.16
2022-11-05T02:36:28.848Z,100426.47
2022-11-05T02:39:17.131Z,100420.53
2022-11-05T02:42:12.171Z,100413.69
2022-11-05T02:44:57.695Z,100423.41
2022-11-05T02:47:46.039Z,100415.59
2022-11-05T02:50:24.462Z,100420.94
2022-11-05T02:53:17.769Z,100428.19
2022-11-05T02:56:05.461Z,100432.66
2022-11-05T02:58:35.889Z,100429.06
2022-11-05T03:01:06.959Z,100434.41
2022-11-05T03:03:54.227Z,100441.53
2022-11-05T03:06:48.357Z,100439.19
2022-11-05T03:09:59.021Z,100438.53
2022-11-05T03:13:01.351Z,100449.34
2022-11-05T03:15:48.789Z,100443.88
2022-11-05T03:18:32.991Z,100452.75
2022-11-05T03:21:12.704Z,100459.13
2022-11-05T03:23:56.852Z,100458.41
2022-11-05T03:26:33.359Z,100454.19
2022-11-05T03:29:19.643Z,100446.41
2022-11-05T03:31:49.511Z,100450.97
2022-11-05T03:34:22.456Z,100450.31
2022-11-05T03:36:54.329Z,100466.34
2022-11-05T03:39:29.709Z,100466.22
2022-11-05T03:41:58.154Z,100468.16
2022-11-05T03:44:34.713Z,100467.50
2022-11-05T03:47:07.033Z,100465.88
2022-11-05T03:49:44.110Z,100482.00
2022-11-05T03:52:20.002Z,100494.59
2022-11-05T03:54:47.470Z,100491.16
2022-11-05T03:57:32.898Z,100500.41
2022-11-05T04:00:00.107Z,100510.34
2022-11-05T04:02:27.474Z,100513.22
2022-11-05T04:04:55.327Z,100523.69
2022-11-05T04:07:40.602Z,100525.50
2022-11-05T04:10:26.604Z,100529.13
2022-11-05T04:13:12.435Z,100532.09
2022-11-05T04:15:57.965Z,100516.34
2022-11-05T04:18:24.988Z,100517.28
2022-11-05T04:21:10.467Z,100511.94
2022-11-05T04:23:56.105Z,100526.94
2022-11-05T04:26:23.595Z,100527.13
2022-11-05T04:29:10.449Z,100537.81
2022-11-05T04:31:38.591Z,100545.81
2022-11-05T04:34:05.934Z,100536.19
2022-11-05T04:36:33.433Z,100534.47
2022-11-05T04:39:00.513Z,100540.84
2022-11-05T04:41:27.505Z,100548.00
2022-11-05T04:43:54.443Z,100551.53
2022-11-05T04:46:21.624Z,100557.16
2022-11-05T04:48:48.618Z,100554.00
2022-11-05T04:51:15.525Z,100557.59
2022-11-05T04:53:42.458Z,100565.78
2022-11-05T04:56:20.467Z,100573.06
2022-11-05T04:58:48.545Z,100579.44
2022-11-05T05:01:19.191Z,100576.66
2022-11-05T05:03:55.580Z,100584.78
2022-11-05T05:06:23.215Z,100590.28
2022-11-05T05:08:52.132Z,100590.56
2022-11-05T05:11:21.901Z,100591.69
2022-11-05T05:13:49.862Z,100590.03
2022-11-05T05:16:26.532Z,100591.78
2022-11-05T05:18:54.384Z,100599.88
2022-11-05T05:21:38.737Z,100607.13
2022-11-05T05:24:18.630Z,100610.81
2022-11-05T05:26:48.943Z,100611.84
2022-11-05T05:29:17.628Z,100615.47
2022-11-05T05:31:45.334Z,100614.53
2022-11-05T05:34:14.162Z,100613.56
2022-11-05T05:36:41.289Z,100625.13
2022-11-05T05:39:10.983Z,100629.69
2022-11-05T05:41:38.768Z,100634.16
2022-11-05T05:44:06.555Z,100637.75
2022-11-05T05:46:33.790Z,100635.19
2022-11-05T05:49:00.848Z,100632.63
2022-11-05T05:51:27.827Z,100629.97
2022-11-05T05:53:54.969Z,100630.88
2022-11-05T05:56:22.296Z,100639.06
2022-11-05T05:58:49.694Z,100634.00
2022-11-05T06:01:20.006Z,100632.38
2022-11-05T06:03:48.991Z,100631.59
2022-11-05T06:06:19.999Z,100643.22
2022-11-05T06:08:47.796Z,100643.31
2022-11-05T06:11:14.889Z,100656.81
2022-11-05T06:13:42.004Z,100662.22
2022-11-05T06:16:10.059Z,100656.22
2022-11-05T06:18:37.796Z,100652.69
2022-11-05T06:21:11.740Z,100655.34
2022-11-05T06:23:40.919Z,100650.00
2022-11-05T06:26:11.865Z,100648.22
2022-11-05T06:28:39.224Z,100655.19
2022-11-05T06:31:06.803Z,100654.06
2022-11-05T06:33:33.934Z,100661.88
2022-11-05T06:36:03.011Z,100651.91
2022-11-05T06:38:34.736Z,100662.41
2022-11-05T06:41:09.875Z,100665.91
2022-11-05T06:43:38.462Z,100671.19
2022-11-05T06:46:05.886Z,100664.03
2022-11-05T06:48:34.060Z,100662.91
2022-11-05T06:51:01.553Z,100677.78
2022-11-05T06:53:30.827Z,100689.25
2022-11-05T06:55:57.804Z,100689.91
2022-11-05T06:58:24.865Z,100697.69
2022-11-05T07:00:52.232Z,100710.94
2022-11-05T07:03:19.430Z,100711.88
2022-11-05T07:05:49.740Z,100714.44
2022-11-05T07:08:17.420Z,100717.91
2022-11-05T07:10:44.438Z,100720.28
2022-11-05T07:13:11.885Z,100729.16
2022-11-05T07:15:39.233Z,100724.53
2022-11-05T07:18:09.933Z,100731.31
2022-11-05T07:20:36.900Z,100729.50
2022-11-05T07:23:08.671Z,100736.47
2022-11-05T07:25:36.495Z,100742.59
2022-11-05T07:28:04.409Z,100746.81
2022-11-05T07:30:33.977Z,100743.97
2022-11-05T07:33:01.531Z,100751.63
2022-11-05T07:35:29.122Z,100750.59
2022-11-05T07:37:56.936Z,100756.59
2022-11-05T07:40:27.627Z,100766.16
2022-11-05T07:43:01.077Z,100774.94
2022-11-05T07:45:31.041Z,100766.81
2022-11-05T07:48:03.861Z,100774.59
2022-11-05T07:50:35.040Z,100769.25
2022-11-05T07:53:15.676Z,100768.00
2022-11-05T07:55:44.206Z,100774.13
2022-11-05T07:58:11.385Z,100782.03
2022-11-05T08:00:38.974Z,100774.03
2022-11-05T08:03:15.902Z,100779.97
2022-11-05T08:05:46.237Z,100780.94
2022-11-05T08:08:16.612Z,100780.41
2022-11-05T08:10:43.657Z,100772.94
2022-11-05T08:13:12.321Z,100776.41
2022-11-05T08:15:40.885Z,100783.09
2022-11-05T08:18:12.714Z,100777.38
2022-11-05T08:20:40.799Z,100786.88
2022-11-05T08:23:08.110Z,100791.31
2022-11-05T08:25:35.464Z,100792.81
2022-11-05T08:28:07.767Z,100803.13
2022-11-05T08:30:35.786Z,100800.47
2022-11-05T08:33:07.989Z,100802.59
2022-11-05T08:35:36.631Z,100804.88
2022-11-05T08:38:07.326Z,100807.94
2022-11-05T08:40:36.265Z,100815.50
2022-11-05T08:43:06.731Z,100812.66
2022-11-05T08:45:38.233Z,100814.25
2022-11-05T08:48:10.419Z,100808.44
2022-11-05T08:50:38.703Z,100813.31
2022-11-05T08:53:06.604Z,100813.78
2022-11-05T08:55:34.077Z,100811.59
2022-11-05T08:58:15.171Z,100819.63
2022-11-05T09:00:45.305Z,100814.53
2022-11-05T09:03:13.307Z,100820.56
2022-11-05T09:05:43.041Z,100821.13
2022-11-05T09:08:14.801Z,100822.97
2022-11-05T09:10:49.542Z,100831.16
2022-11-05T09:13:19.685Z,100839.00
2022-11-05T09:15:49.165Z,100841.94
2022-11-05T09:18:18.134Z,100850.34
2022-11-05T09:20:45.309Z,100853.78
2022-11-05T09:23:15.104Z,100855.41
2022-11-05T09:25:43.054Z,100858.66
2022-11-05T09:28:18.825Z,100861.13
2022-11-05T09:30:51.719Z,100854.44
2022-11-05T09:33:23.401Z,100861.22
2022-11-05T09:35:51.809Z,100861.31
2022-11-05T09:38:19.526Z,100864.34
2022-11-05T09:41:02.991Z,100863.41
2022-11-05T09:43:50.070Z,100866.63
2022-11-05T09:46:24.552Z,100865.56
2022-11-05T09:49:02.226Z,100871.19
2022-11-05T09:51:29.670Z,100871.19
2022-11-05T09:53:59.680Z,100868.94
2022-11-05T09:56:31.454Z,100862.34
2022-11-05T09:59:09.008Z,100867.94
2022-11-05T10:01:38.358Z,100869.34
2022-11-05T10:04:18.740Z,100868.81
2022-11-05T10:06:55.714Z,100872.16
2022-11-05T10:09:49.632Z,100875.81
2022-11-05T10:12:26.534Z,100871.09
2022-11-05T10:15:37.438Z,100874.09
2022-11-05T10:18:30.819Z,100875.44
2022-11-05T10:20:58.388Z,100875.31
2022-11-05T10:23:27.678Z,100880.34
2022-11-05T10:26:00.544Z,100884.56
2022-11-05T10:28:30.989Z,100879.91
2022-11-05T10:31:08.422Z,100876.94
2022-11-05T10:33:56.934Z,100877.16
2022-11-05T10:36:30.038Z,100878.00
2022-11-05T10:39:13.981Z,100879.72
2022-11-05T10:42:37.005Z,100872.00
2022-11-05T10:45:29.312Z,100880.53
2022-11-05T10:48:33.650Z,100873.75
2022-11-05T10:51:01.598Z,100870.63
2022-11-05T10:53:36.346Z,100865.56
2022-11-05T10:56:03.915Z,100867.94
2022-11-05T10:58:35.329Z,100861.91
2022-11-05T11:01:08.722Z,100867.78
2022-11-05T11:03:48.833Z,100869.06
2022-11-05T11:06:31.473Z,100869.38
2022-11-05T11:09:06.484Z,100862.78
2022-11-05T11:11:42.647Z,100860.28
2022-11-05T11:14:20.908Z,100867.91
2022-11-05T11:16:57.184Z,100868.53
2022-11-05T11:19:27.833Z,100867.22
2022-11-05T11:22:04.698Z,100862.84
2022-11-05T11:24:43.461Z,100856.13
2022-11-05T11:27:20.099Z,100855.66
2022-11-05T11:29:56.969Z,100849.47
2022-11-05T11:32:38.984Z,100842.09
2022-11-05T11:35:18.064Z,100849.44
2022-11-05T11:37:47.184Z,100840.28
2022-11-05T11:40:22.890Z,100847.63
2022-11-05T11:42:57.810Z,100835.53
2022-11-05T11:45:46.144Z,100842.91
2022-11-05T11:48:20.123Z,100842.41
2022-11-05T11:50:48.976Z,100846.34
2022-11-05T11:53:20.647Z,100846.81
2022-11-05T11:56:02.795Z,100841.50
2022-11-05T11:59:03.357Z,100840.56
2022-11-05T12:01:56.976Z,100843.63
2022-11-05T12:04:51.227Z,100842.88
2022-11-05T12:07:41.721Z,100839.09
2022-11-05T12:10:48.916Z,100839.22
2022-11-05T12:13:19.077Z,100842.66
2022-11-05T12:16:09.709Z,100829.44
2022-11-05T12:19:00.113Z,100827.59
2022-11-05T12:21:54.315Z,100825.53
2022-11-05T12:24:37.328Z,100817.47
2022-11-05T12:27:41.455Z,100823.94
2022-11-05T12:30:18.893Z,100821.34
2022-11-05T12:33:17.431Z,100814.84
2022-11-05T12:36:02.680Z,100811.50
2022-11-05T12:38:44.752Z,100811.25
2022-11-05T12:41:32.865Z,100816.28
2022-11-05T12:44:37.530Z,100805.00
2022-11-05T12:47:47.380Z,100806.19
2022-11-05T12:51:04.736Z,100800.63
2022-11-05T12:53:55.084Z,100799.13
2022-11-05T12:56:35.093Z,100798.72
2022-11-05T12:59:33.892Z,100806.44
2022-11-05T13:02:20.706Z,100797.84
2022-11-05T13:04:58.023Z,100801.88
2022-11-05T13:07:38.954Z,100805.06
2022-11-05T13:10:27.242Z,100808.34
2022-11-05T13:13:18.313Z,100805.97
2022-11-05T13:15:55.144Z,100813.53
2022-11-05T13:18:33.422Z,100799.53
2022-11-05T13:21:06.797Z,100797.25
2022-11-05T13:24:02.848Z,100797.72
2022-11-05T13:26:40.135Z,100800.03
2022-11-05T13:29:33.392Z,100798.63
2022-11-05T13:32:17.174Z,100797.97
2022-11-05T13:34:44.130Z,100801.97
2022-11-05T13:37:31.676Z,100800.84
2022-11-05T13:40:05.574Z,100798.00
2022-11-05T13:42:48.399Z,100789.63
2022-11-05T13:46:01.421Z,100792.66
2022-11-05T13:49:05.524Z,100791.25
2022-11-05T13:51:46.102Z,100788.56
2022-11-05T13:54:23.109Z,100786.59
2022-11-05T13:57:34.126Z,100791.72
2022-11-05T14:00:23.467Z,100791.44
2022-11-05T14:03:15.054Z,100792.88
2022-11-05T14:05:43.664Z,100798.03
2022-11-05T14:08:18.008Z,100787.66
2022-11-05T14:10:58.678Z,100793.06
2022-11-05T14:13:32.567Z,100787.66
2022-11-05T14:16:08.011Z,100792.22
2022-11-05T14:18:52.936Z,100798.47
2022-11-05T14:21:25.846Z,100793.06
2022-11-05T14:23:59.181Z,100790.50
2022-11-05T14:26:29.911Z,100795.06
2022-11-05T14:29:02.941Z,100795.34
2022-11-05T14:34:46.279Z,100798.38
2022-11-05T14:37:13.142Z,100799.78
2022-11-05T14:39:41.872Z,100799.31
2022-11-05T14:42:15.085Z,100806.09
2022-11-05T14:45:07.075Z,100801.53
2022-11-05T14:47:43.432Z,100813.84
2022-11-05T14:50:39.090Z,100810.72
2022-11-05T14:53:35.216Z,100812.34
2022-11-05T14:56:15.690Z,100809.22
2022-11-05T14:58:45.002Z,100812.44
2022-11-05T15:01:15.029Z,100814.53
2022-11-05T15:03:46.202Z,100817.75
2022-11-05T15:06:33.646Z,100812.75
2022-11-05T15:09:03.617Z,100812.41
2022-11-05T15:11:38.549Z,100812.78
2022-11-05T15:14:19.975Z,100817.84
2022-11-05T15:16:56.205Z,100822.03
2022-11-05T15:19:34.214Z,100823.16
2022-11-05T15:22:07.205Z,100829.91
2022-11-05T15:24:35.218Z,100821.47
2022-11-05T15:27:18.816Z,100822.84
2022-11-05T15:29:45.979Z,100834.28
2022-11-05T15:32:24.706Z,100832.22
2022-11-05T15:34:56.361Z,100835.41
2022-11-05T15:37:27.006Z,100835.16
2022-11-05T15:39:55.572Z,100829.44
2022-11-05T15:42:26.555Z,100830.06
2022-11-05T15:45:00.398Z,100829.94
2022-11-05T15:47:30.541Z,100828.84
2022-11-05T15:50:01.545Z,100837.63
2022-11-05T15:52:42.173Z,100841.06
2022-11-05T15:55:12.108Z,100840.06
2022-11-05T15:57:50.952Z,100846.22
2022-11-05T16:00:31.963Z,100846.94
2022-11-05T16:03:01.594Z,100848.34
2022-11-05T16:05:34.448Z,100847.03
2022-11-05T16:08:05.217Z,100847.50
2022-11-05T16:10:37.811Z,100854.34
2022-11-05T16:13:34.924Z,100857.59
2022-11-05T16:16:23.467Z,100860.03
2022-11-05T16:18:50.907Z,100857.03
2022-11-05T16:21:22.742Z,100860.09
2022-11-05T16:23:49.740Z,100865.09
2022-11-05T16:29:39.049Z,100858.03
2022-11-05T16:32:19.290Z,100869.13
2022-11-05T16:34:51.326Z,100867.63
2022-11-05T16:37:21.748Z,100866.16
2022-11-05T16:39:48.832Z,100870.25
2022-11-05T16:42:24.633Z,100878.03
2022-11-05T16:44:55.168Z,100883.84
2022-11-05T16:47:23.097Z,100882.59
2022-11-05T16:49:50.877Z,100893.56
2022-11-05T16:52:18.598Z,100901.94
2022-11-05T16:54:45.570Z,100897.88
2022-11-05T16:57:29.896Z,100901.72
2022-11-05T16:59:59.185Z,100905.09
2022-11-05T17:02:27.467Z,100912.63
2022-11-05T17:04:54.614Z,100912.19
2022-11-05T17:07:21.620Z,100917.78
2022-11-05T17:09:48.661Z,100918.84
2022-11-05T17:12:16.542Z,100918.34
2022-11-05T17:14:43.457Z,100929.38
2022-11-05T17:17:10.660Z,100926.81
2022-11-05T17:19:42.952Z,100928.94
2022-11-05T17:22:10.857Z,100937.22
2022-11-05T17:24:38.915Z,100940.97
2022-11-05T17:27:05.998Z,100944.78
2022-11-05T17:29:32.899Z,100942.22
2022-11-05T17:31:59.806Z,100946.84
2022-11-05T17:34:26.720Z,100948.88
2022-11-05T17:36:53.652Z,100949.06
2022-11-05T17:39:23.140Z,100953.03
2022-11-05T17:41:52.294Z,100957.03
2022-11-05T17:44:19.564Z,100960.84
2022-11-05T17:46:46.602Z,100959.25
2022-11-05T17:49:13.497Z,100962.88
2022-11-05T17:51:40.378Z,100967.50
2022-11-05T17:54:07.576Z,100970.41
2022-11-05T17:56:40.271Z,100972.31
2022-11-05T17:59:10.591Z,100980.78
2022-11-05T18:01:43.149Z,100983.56
2022-11-05T18:04:10.998Z,100987.19
2022-11-05T18:06:40.649Z,100989.22
2022-11-05T18:09:10.184Z,100991.25
2022-11-05T18:11:38.188Z,101002.19
2022-11-05T18:14:05.451Z,100994.25
2022-11-05T18:16:33.097Z,100998.09
2022-11-05T18:19:00.361Z,100998.28
2022-11-05T18:21:27.912Z,101006.53
2022-11-05T18:23:54.987Z,101001.38
2022-11-05T18:26:22.009Z,101005.97
2022-11-05T18:28:49.300Z,100996.28
2022-11-05T18:31:20.957Z,101003.59
2022-11-05T18:33:49.401Z,101011.84
2022-11-05T18:36:22.953Z,101012.09
2022-11-05T18:38:50.517Z,101018.63
2022-11-05T18:41:18.864Z,101015.28
2022-11-05T18:43:46.530Z,101016.25
2022-11-05T18:46:35.815Z,101021.81
2022-11-05T18:49:01.099Z,101022.09
2022-11-05T18:51:28.235Z,101025.06
2022-11-05T18:53:56.320Z,101022.66
2022-11-05T18:56:23.976Z,101023.63
2022-11-05T18:59:14.684Z,101018.47
2022-11-05T19:01:41.309Z,101024.97
2022-11-05T19:04:08.889Z,101024.19
2022-11-05T19:06:38.546Z,101025.31
2022-11-05T19:09:08.905Z,101021.13
2022-11-05T19:11:36.402Z,101023.03
2022-11-05T19:14:03.417Z,101031.06
2022-11-05T19:16:31.100Z,101035.66
2022-11-05T19:19:00.584Z,101045.59
2022-11-05T19:21:28.184Z,101042.16
2022-11-05T19:24:00.159Z,101045.03
2022-11-05T19:26:29.147Z,101043.50
2022-11-05T19:29:01.789Z,101042.72
2022-11-05T19:31:30.780Z,101051.03
2022-11-05T19:33:58.462Z,101054.69
2022-11-05T19:36:25.867Z,101057.44
2022-11-05T19:39:00.017Z,101060.22
2022-11-05T19:41:27.319Z,101063.16
2022-11-05T19:43:55.088Z,101063.94
2022-11-05T19:46:23.929Z,101058.69
2022-11-05T19:48:51.193Z,101065.09
2022-11-05T19:51:27.677Z,101064.41
2022-11-05T19:53:55.378Z,101071.84
2022-11-05T19:56:27.203Z,101071.00
2022-11-05T19:58:54.803Z,101071.00
2022-11-05T20:01:24.562Z,101080.00
2022-11-05T20:03:52.145Z,101081.78
2022-11-05T20:06:24.119Z,101079.19
2022-11-05T20:09:20.019Z,101086.38
2022-11-05T20:11:40.404Z,101087.41
2022-11-05T20:14:09.388Z,101090.88
2022-11-05T20:16:38.987Z,101097.09
2022-11-05T20:19:17.222Z,101106.09
2022-11-05T20:21:45.546Z,101108.03
2022-11-05T20:24:20.508Z,101110.22
2022-11-05T20:26:54.864Z,101117.69
2022-11-05T20:29:22.781Z,101127.59
2022-11-05T20:31:50.664Z,101125.88
2022-11-05T20:34:18.358Z,101134.94
2022-11-05T20:36:45.722Z,101141.44
2022-11-05T20:39:12.800Z,101141.44
2022-11-05T20:41:39.973Z,101142.41
2022-11-05T20:44:06.988Z,101144.34
2022-11-05T20:46:34.208Z,101144.47
2022-11-05T20:49:01.147Z,101145.41
2022-11-05T20:51:28.322Z,101142.75
2022-11-05T20:54:00.992Z,101157.22
2022-11-05T20:56:32.000Z,101156.63
2022-11-05T20:59:00.788Z,101154.81
2022-11-05T21:01:31.381Z,101155.84
2022-11-05T21:03:59.617Z,101158.53
2022-11-05T21:06:26.631Z,101169.56
2022-11-05T21:08:53.982Z,101183.97
2022-11-05T21:11:21.390Z,101184.91
2022-11-05T21:13:48.765Z,101176.22
2022-11-05T21:16:19.033Z,101174.50
2022-11-05T21:18:47.789Z,101180.88
2022-11-05T21:21:20.206Z,101189.91
2022-11-05T21:23:47.436Z,101188.97
2022-11-05T21:26:16.810Z,101191.84
2022-11-05T21:28:44.047Z,101192.75
2022-11-05T21:31:11.276Z,101196.66
2022-11-05T21:33:38.804Z,101194.03
2022-11-05T21:36:13.211Z,101205.69
2022-11-05T21:38:40.701Z,101201.44
2022-11-05T21:41:10.504Z,101196.88
2022-11-05T21:43:39.679Z,101200.41
2022-11-05T21:46:06.670Z,101201.44
2022-11-05T21:48:34.032Z,101202.56
2022-11-05T21:51:19.848Z,101201.81
2022-11-05T21:54:05.767Z,101205.47
2022-11-05T21:56:52.383Z,101199.41
2022-11-05T21:59:41.580Z,101206.75
2022-11-05T22:02:12.021Z,101201.56
2022-11-05T22:04:43.027Z,101204.28
2022-11-05T22:07:13.755Z,101214.28
2022-11-05T22:09:41.240Z,101207.22
2022-11-05T22:12:09.173Z,101211.63
2022-11-05T22:14:36.600Z,101213.59
2022-11-05T22:17:04.276Z,101217.97
2022-11-05T22:19:32.032Z,101217.13
2022-11-05T22:21:59.454Z,101217.28
2022-11-05T22:24:31.874Z,101223.75
2022-11-05T22:27:04.722Z,101221.06
2022-11-05T22:29:31.694Z,101220.44
2022-11-05T22:31:59.149Z,101216.03
2022-11-05T22:34:26.692Z,101212.50
2022-11-05T22:36:54.555Z,101218.25
2022-11-05T22:39:21.734Z,101215.59
2022-11-05T22:41:49.662Z,101217.47
2022-11-05T22:44:17.354Z,101229.16
2022-11-05T22:46:44.538Z,101239.00
2022-11-05T22:49:12.182Z,101230.97
2022-11-05T22:51:40.055Z,101236.38
2022-11-05T22:54:07.873Z,101237.34
2022-11-05T22:56:40.861Z,101234.06
2022-11-05T22:59:14.138Z,101229.78
2022-11-05T23:01:43.524Z,101231.53
2022-11-05T23:04:12.218Z,101236.88
2022-11-05T23:06:58.751Z,101231.59
2022-11-05T23:09:53.440Z,101224.53
2022-11-05T23:12:37.943Z,101231.91
2022-11-05T23:15:06.821Z,101227.69
2022-11-05T23:17:52.202Z,101226.56
2022-11-05T23:20:42.195Z,101225.81
2022-11-05T23:23:31.596Z,101220.63
2022-11-05T23:26:22.360Z,101222.56
2022-11-05T23:28:49.733Z,101219.00
2022-11-05T23:31:35.551Z,101221.63
2022-11-05T23:34:03.118Z,101224.44
2022-11-05T23:36:48.992Z,101228.22
2022-11-05T23:39:16.181Z,101227.50
2022-11-05T23:42:01.750Z,101243.44
2022-11-05T23:44:47.287Z,101247.22
2022-11-05T23:47:32.801Z,101250.09
2022-11-05T23:49:59.733Z,101260.16
2022-11-05T23:52:27.023Z,101255.03
2022-11-05T23:54:53.977Z,101252.53
2022-11-05T23:57:20.871Z,101263.22
2022-11-05T23:59:48.637Z,101262.59
